Time;durP1;ratioP1;P1;durP2;ratioP2;P2;SDS_P1;SDS_P2;PMS_P1;PMS_P2;Temp;Humidity;BMP_temperature;BMP_pressure;BME280_temperature;BME280_humidity;BME280_pressure;Samples;Min_cycle;Max_cycle;Signal;HPM_P1;HPM_P2
2021/06/30 00:01:25;;;;;;;20.35;11.25;;;;;;;13.19;100.00;101431.19;4986186;28;20029;-59
2021/06/30 00:03:51;;;;;;;21.50;10.80;;;;;;;13.21;100.00;101434.69;4987956;28;20492;-59
2021/06/30 00:06:18;;;;;;;18.67;10.27;;;;;;;13.20;100.00;101432.94;4995920;28;20022;-58
2021/06/30 00:08:44;;;;;;;18.53;11.17;;;;;;;13.22;100.00;101425.69;4993588;28;20030;-57
2021/06/30 00:11:10;;;;;;;24.93;11.17;;;;;;;13.25;100.00;101438.94;4989466;28;20622;-59
2021/06/30 00:13:35;;;;;;;19.35;9.18;;;;;;;13.28;100.00;101436.97;4992627;28;20112;-59
2021/06/30 00:16:00;;;;;;;18.67;10.07;;;;;;;13.25;100.00;101437.13;4981895;28;20114;-58
2021/06/30 00:18:26;;;;;;;12.85;8.00;;;;;;;13.23;100.00;101433.66;4990017;28;20541;-57
2021/06/30 00:20:52;;;;;;;12.65;8.40;;;;;;;13.17;100.00;101438.47;4990699;28;20458;-59
2021/06/30 00:23:17;;;;;;;12.88;8.32;;;;;;;13.14;100.00;101434.16;4986474;28;20084;-59
2021/06/30 00:25:43;;;;;;;8.32;5.78;;;;;;;13.06;100.00;101431.00;4985416;28;20065;-59
2021/06/30 00:28:09;;;;;;;9.90;6.22;;;;;;;13.01;100.00;101425.00;4988488;28;20034;-59
2021/06/30 00:30:34;;;;;;;;;;;;;;;12.97;100.00;101418.94;4994527;28;20029;-60
2021/06/30 00:33:00;;;;;;;12.93;7.53;;;;;;;12.95;100.00;101423.53;4983145;28;19943;-58
2021/06/30 00:35:25;;;;;;;12.27;7.80;;;;;;;12.97;100.00;101416.25;4984989;28;20045;-59
2021/06/30 00:37:50;;;;;;;10.30;7.72;;;;;;;12.97;100.00;101421.59;4986976;28;20475;-59
2021/06/30 00:40:16;;;;;;;11.90;7.40;;;;;;;12.96;100.00;101417.19;4984756;28;20164;-59
2021/06/30 00:42:41;;;;;;;11.82;8.02;;;;;;;12.97;100.00;101417.13;4987461;28;20092;-59
2021/06/30 00:45:08;;;;;;;12.25;7.85;;;;;;;12.98;100.00;101417.97;4986956;28;20022;-59
2021/06/30 00:47:35;;;;;;;11.43;7.50;;;;;;;12.98;100.00;101424.22;4989383;28;20064;-59
2021/06/30 00:50:00;;;;;;;13.23;7.85;;;;;;;13.01;100.00;101422.31;4987471;28;20347;-59
2021/06/30 00:52:25;;;;;;;13.98;7.45;;;;;;;12.98;100.00;101410.84;4999982;28;20390;-59
2021/06/30 00:54:51;;;;;;;16.50;8.30;;;;;;;12.98;100.00;101418.88;4988514;28;20041;-58
2021/06/30 00:57:18;;;;;;;17.80;7.20;;;;;;;12.95;100.00;101410.97;4990347;28;20065;-58
2021/06/30 00:59:43;;;;;;;9.57;7.00;;;;;;;12.93;100.00;101414.69;4982099;28;20049;-59
2021/06/30 01:02:08;;;;;;;15.30;7.57;;;;;;;12.90;100.00;101414.84;4985609;28;20289;-59
2021/06/30 01:04:34;;;;;;;13.57;7.05;;;;;;;12.85;100.00;101415.06;4991474;28;20054;-59
2021/06/30 01:07:00;;;;;;;12.95;7.80;;;;;;;12.86;100.00;101407.91;4980352;28;20038;-60
2021/06/30 01:09:25;;;;;;;11.77;7.68;;;;;;;12.85;100.00;101407.03;4991943;28;20052;-60
2021/06/30 01:11:50;;;;;;;12.73;7.55;;;;;;;12.85;100.00;101398.16;4983309;28;20026;-59
2021/06/30 01:14:27;;;;;;;14.63;8.70;;;;;;;12.88;100.00;101403.31;4990495;28;21011;-59
2021/06/30 01:16:53;;;;;;;14.75;7.68;;;;;;;12.91;100.00;101409.38;4980339;28;21127;-59
2021/06/30 01:19:19;;;;;;;13.43;7.88;;;;;;;12.93;100.00;101401.31;4994323;28;20021;-59
2021/06/30 01:21:45;;;;;;;16.13;8.13;;;;;;;12.95;100.00;101404.78;4982132;28;20041;-59
2021/06/30 01:24:10;;;;;;;11.90;7.95;;;;;;;12.96;100.00;101409.16;4986706;28;20285;-59
2021/06/30 01:26:36;;;;;;;14.73;7.82;;;;;;;12.94;100.00;101411.91;4993659;28;20117;-59
2021/06/30 01:29:01;;;;;;;15.88;8.18;;;;;;;12.91;100.00;101417.41;4987114;28;20053;-59
2021/06/30 01:31:27;;;;;;;14.55;7.80;;;;;;;12.92;100.00;101418.31;4987270;28;20121;-58
2021/06/30 01:33:52;;;;;;;15.25;8.02;;;;;;;12.88;100.00;101416.72;4987700;28;20072;-59
2021/06/30 01:36:17;;;;;;;12.35;7.85;;;;;;;12.84;100.00;101413.31;4985446;28;20033;-59
2021/06/30 01:38:43;;;;;;;14.98;8.93;;;;;;;12.85;100.00;101408.84;4989934;28;20116;-58
2021/06/30 01:41:11;;;;;;;13.50;8.70;;;;;;;12.86;100.00;101406.09;4985585;28;20045;-58
2021/06/30 01:43:36;;;;;;;12.80;8.93;;;;;;;12.82;100.00;101408.06;5000175;28;20022;-60
2021/06/30 01:46:02;;;;;;;14.27;7.40;;;;;;;12.83;100.00;101403.59;4981003;28;20907;-59
2021/06/30 01:48:27;;;;;;;13.52;8.10;;;;;;;12.83;100.00;101409.78;5000613;28;20073;-59
2021/06/30 01:50:53;;;;;;;12.25;8.85;;;;;;;12.86;100.00;101419.47;4988517;28;20426;-59
2021/06/30 01:53:19;;;;;;;8.75;6.50;;;;;;;12.86;100.00;101414.13;4996631;28;20108;-59
2021/06/30 01:55:44;;;;;;;9.43;7.05;;;;;;;12.81;100.00;101413.50;4994656;28;20121;-58
2021/06/30 01:58:09;;;;;;;12.88;5.47;;;;;;;12.72;100.00;101411.28;4989407;28;20487;-59
2021/06/30 02:00:35;;;;;;;9.88;5.72;;;;;;;12.68;100.00;101399.88;4994495;28;20129;-58
2021/06/30 02:03:01;;;;;;;11.23;6.13;;;;;;;12.66;100.00;101407.97;4982468;28;20041;-58
2021/06/30 02:05:27;;;;;;;9.40;6.22;;;;;;;12.62;100.00;101397.50;4993228;28;20491;-57
2021/06/30 02:07:54;;;;;;;7.57;4.40;;;;;;;12.54;100.00;101399.69;4984976;28;20029;-58
2021/06/30 02:10:21;;;;;;;7.90;3.60;;;;;;;12.47;100.00;101396.44;4993423;28;20244;-59
2021/06/30 02:12:48;;;;;;;9.13;3.70;;;;;;;12.32;100.00;101404.28;4991788;28;20797;-59
2021/06/30 02:15:20;;;;;;;7.97;4.07;;;;;;;12.25;100.00;101402.84;4988030;28;20305;-59
2021/06/30 02:17:47;;;;;;;5.03;3.77;;;;;;;12.19;100.00;101409.38;4989603;28;20293;-58
2021/06/30 02:20:13;;;;;;;8.57;4.47;;;;;;;12.13;100.00;101404.31;4989437;28;20716;-59
2021/06/30 02:22:39;;;;;;;;;;;;;;;12.10;100.00;101407.16;4996815;28;20682;-58
2021/06/30 02:25:07;;;;;;;10.17;4.60;;;;;;;12.09;100.00;101405.41;4988396;28;19983;-59
2021/06/30 02:27:33;;;;;;;12.57;5.10;;;;;;;12.12;100.00;101405.25;4994936;28;20289;-59
2021/06/30 02:29:58;;;;;;;10.95;5.25;;;;;;;12.11;100.00;101406.19;4992639;28;20345;-60
2021/06/30 02:32:23;;;;;;;7.80;4.85;;;;;;;12.16;100.00;101393.47;4992102;28;20052;-59
2021/06/30 02:34:49;;;;;;;10.73;4.72;;;;;;;12.15;100.00;101394.41;4988455;28;20029;-59
2021/06/30 02:37:15;;;;;;;10.02;4.70;;;;;;;12.19;100.00;101403.16;4988157;28;20032;-59
2021/06/30 02:39:40;;;;;;;9.02;5.10;;;;;;;12.18;100.00;101402.28;4989175;28;20105;-59
2021/06/30 02:42:05;;;;;;;8.18;5.03;;;;;;;12.19;100.00;101398.66;4987902;28;20034;-59
2021/06/30 02:44:31;;;;;;;9.45;4.75;;;;;;;12.18;100.00;101396.94;4995535;28;20041;-59
2021/06/30 02:46:56;;;;;;;10.38;4.70;;;;;;;12.21;100.00;101389.69;4988127;28;20042;-59
2021/06/30 02:49:21;;;;;;;11.98;5.45;;;;;;;12.21;100.00;101389.69;4991863;28;20025;-59
2021/06/30 02:51:47;;;;;;;6.72;4.13;;;;;;;12.19;100.00;101387.13;4989496;28;20418;-59
2021/06/30 02:54:12;;;;;;;11.70;5.05;;;;;;;12.15;100.00;101390.84;4987672;28;20480;-59
2021/06/30 02:56:38;;;;;;;9.20;4.75;;;;;;;12.15;100.00;101386.41;4994294;28;22084;-59
2021/06/30 02:59:03;;;;;;;8.23;5.05;;;;;;;12.16;100.00;101382.78;4986302;28;20034;-59
2021/06/30 03:01:29;;;;;;;8.45;4.35;;;;;;;12.15;100.00;101382.84;4992569;28;20483;-59
2021/06/30 03:03:54;;;;;;;13.27;5.18;;;;;;;12.15;100.00;101385.50;4992996;28;20867;-59
2021/06/30 03:06:19;;;;;;;17.48;5.85;;;;;;;12.13;100.00;101392.75;4988213;28;20037;-59
2021/06/30 03:08:45;;;;;;;7.68;5.38;;;;;;;12.14;100.00;101379.31;4991944;28;20053;-58
2021/06/30 03:11:10;;;;;;;8.13;5.07;;;;;;;12.10;100.00;101382.19;4987904;28;20029;-58
2021/06/30 03:13:36;;;;;;;12.18;5.93;;;;;;;12.09;100.00;101378.69;4998667;28;20068;-59
2021/06/30 03:16:04;;;;;;;10.82;5.60;;;;;;;12.07;100.00;101380.56;4990092;28;20036;-59
2021/06/30 03:18:29;;;;;;;13.10;5.20;;;;;;;12.07;100.00;101383.22;5000304;28;20098;-59
2021/06/30 03:20:54;;;;;;;9.70;5.50;;;;;;;12.07;100.00;101377.88;4987595;28;20778;-59
2021/06/30 03:23:20;;;;;;;11.40;5.70;;;;;;;12.07;100.00;101377.03;4991808;28;20032;-59
2021/06/30 03:25:45;;;;;;;8.05;5.55;;;;;;;12.08;100.00;101373.38;4988835;28;20564;-59
2021/06/30 03:28:11;;;;;;;8.02;5.10;;;;;;;12.06;100.00;101367.25;4986376;28;20032;-59
2021/06/30 03:30:36;;;;;;;8.25;5.90;;;;;;;12.03;100.00;101377.16;4992495;28;20040;-60
2021/06/30 03:33:02;;;;;;;9.18;5.55;;;;;;;12.07;100.00;101374.34;4986932;28;20458;-58
2021/06/30 03:35:28;;;;;;;7.28;5.60;;;;;;;12.09;100.00;101380.47;4996305;28;20052;-58
2021/06/30 03:37:54;;;;;;;9.25;5.38;;;;;;;12.10;100.00;101380.41;4984102;28;20036;-59
2021/06/30 03:40:19;;;;;;;12.35;5.53;;;;;;;12.13;100.00;101385.59;4979519;28;20029;-58
2021/06/30 03:42:44;;;;;;;10.65;5.53;;;;;;;12.10;100.00;101393.78;4988536;28;20040;-59
2021/06/30 03:45:10;;;;;;;9.13;6.18;;;;;;;12.09;100.00;101380.47;4990230;28;20038;-58
2021/06/30 03:47:36;;;;;;;12.15;5.82;;;;;;;12.09;100.00;101384.03;4989096;28;20065;-59
2021/06/30 03:50:02;;;;;;;9.15;5.57;;;;;;;12.06;99.95;101383.31;4989666;28;20060;-58
2021/06/30 03:52:27;;;;;;;19.60;5.77;;;;;;;12.00;99.51;101381.78;4992766;28;20969;-60
2021/06/30 03:54:53;;;;;;;7.38;5.30;;;;;;;11.97;100.00;101392.63;4983365;28;20292;-58
2021/06/30 03:57:19;;;;;;;10.18;5.10;;;;;;;11.93;99.91;101396.34;4988889;28;20033;-59
2021/06/30 03:59:45;;;;;;;9.77;5.63;;;;;;;11.88;99.56;101393.91;4985014;28;20037;-59
2021/06/30 04:02:10;;;;;;;9.25;5.10;;;;;;;11.87;99.91;101402.84;4984114;28;20076;-59
2021/06/30 04:04:36;;;;;;;14.05;5.57;;;;;;;11.85;100.00;101394.91;4984729;28;20489;-59
2021/06/30 04:07:01;;;;;;;8.60;5.45;;;;;;;11.86;100.00;101409.13;4985935;28;20272;-58
2021/06/30 04:09:27;;;;;;;18.30;5.53;;;;;;;11.87;100.00;101411.75;4991177;28;20043;-59
2021/06/30 04:11:52;;;;;;;12.32;5.05;;;;;;;11.86;100.00;101407.34;4985899;28;20631;-59
2021/06/30 04:14:18;;;;;;;9.88;5.28;;;;;;;11.87;100.00;101403.75;4995923;28;20029;-59
2021/06/30 04:16:43;;;;;;;16.70;5.75;;;;;;;11.87;100.00;101408.19;4986198;28;21594;-58
2021/06/30 04:19:08;;;;;;;14.65;6.20;;;;;;;11.90;100.00;101417.88;4989223;28;20032;-59
2021/06/30 04:21:34;;;;;;;12.65;5.40;;;;;;;11.92;100.00;101413.34;4990473;28;20487;-58
2021/06/30 04:23:59;;;;;;;10.45;5.35;;;;;;;11.96;100.00;101421.13;4988326;28;20115;-59
2021/06/30 04:26:25;;;;;;;11.98;5.53;;;;;;;11.99;100.00;101417.47;4994526;28;20029;-59
2021/06/30 04:28:50;;;;;;;11.50;6.40;;;;;;;12.02;100.00;101415.53;4985814;28;20036;-58
2021/06/30 04:31:15;;;;;;;14.60;5.97;;;;;;;12.09;100.00;101415.22;4985166;28;20034;-59
2021/06/30 04:33:41;;;;;;;14.98;6.55;;;;;;;12.15;100.00;101418.50;4989696;28;20057;-59
2021/06/30 04:36:06;;;;;;;10.50;6.22;;;;;;;12.24;100.00;101410.97;4987557;28;20053;-59
2021/06/30 04:38:31;;;;;;;8.15;5.43;;;;;;;12.28;100.00;101412.53;4987941;28;20439;-60
2021/06/30 04:40:57;;;;;;;14.15;6.00;;;;;;;12.32;100.00;101408.78;4990104;28;20546;-58
2021/06/30 04:43:22;;;;;;;12.32;6.60;;;;;;;12.36;100.00;101413.03;4991622;28;20100;-58
2021/06/30 04:45:48;;;;;;;16.20;7.38;;;;;;;12.40;100.00;101409.28;4982039;28;20483;-58
2021/06/30 04:48:14;;;;;;;14.40;6.78;;;;;;;12.43;100.00;101410.94;4984484;28;20053;-58
2021/06/30 04:50:40;;;;;;;12.77;6.27;;;;;;;12.44;100.00;101413.53;4982055;28;20041;-59
2021/06/30 04:53:05;;;;;;;14.35;6.57;;;;;;;12.47;100.00;101418.75;4985829;28;20835;-59
2021/06/30 04:55:30;;;;;;;14.90;6.75;;;;;;;12.49;100.00;101411.47;4989682;28;20029;-59
2021/06/30 04:57:56;;;;;;;8.85;6.25;;;;;;;12.53;100.00;101414.00;4984470;28;20935;-59
2021/06/30 05:00:21;;;;;;;13.30;7.10;;;;;;;12.55;100.00;101412.13;4994619;28;22131;-59
2021/06/30 05:02:46;;;;;;;14.40;7.13;;;;;;;12.58;100.00;101403.94;4984881;28;20069;-59
2021/06/30 05:05:12;;;;;;;15.98;7.70;;;;;;;12.59;100.00;101398.53;4985833;28;20025;-59
2021/06/30 05:07:37;;;;;;;12.95;7.43;;;;;;;12.60;100.00;101396.72;4989769;28;20053;-59
2021/06/30 05:10:03;;;;;;;15.85;8.57;;;;;;;12.63;100.00;101385.84;4988587;28;20057;-59
2021/06/30 05:12:28;;;;;;;14.68;8.75;;;;;;;12.67;100.00;101387.41;4981839;28;21348;-59
2021/06/30 05:14:54;;;;;;;11.32;7.35;;;;;;;12.74;100.00;101380.81;4986889;28;20057;-60
2021/06/30 05:17:21;;;;;;;17.65;8.65;;;;;;;12.79;100.00;101389.50;4994196;28;20301;-59
2021/06/30 05:19:47;;;;;;;13.67;7.77;;;;;;;12.80;100.00;101393.88;4989520;28;20083;-59
2021/06/30 05:22:12;;;;;;;13.10;8.20;;;;;;;12.79;100.00;101380.56;4994261;28;20304;-59
2021/06/30 05:24:37;;;;;;;13.98;8.50;;;;;;;12.79;100.00;101386.81;4991992;28;20037;-59
2021/06/30 05:27:03;;;;;;;13.75;8.40;;;;;;;12.77;100.00;101391.38;4990998;28;20045;-59
2021/06/30 05:29:28;;;;;;;14.13;8.95;;;;;;;12.77;100.00;101394.06;4991425;28;20085;-60
2021/06/30 05:31:54;;;;;;;13.73;7.97;;;;;;;12.69;100.00;101390.91;4993976;28;20140;-59
2021/06/30 05:34:19;;;;;;;10.88;7.47;;;;;;;12.66;100.00;101394.59;4991973;28;20040;-58
2021/06/30 05:36:48;;;;;;;12.55;6.65;;;;;;;12.65;100.00;101390.19;4990892;28;20026;-59
2021/06/30 05:39:23;;;;;;;14.70;6.87;;;;;;;12.72;100.00;101389.88;4997689;28;20124;-59
2021/06/30 05:41:49;;;;;;;11.83;6.87;;;;;;;12.78;100.00;101398.47;4985443;28;20289;-59
2021/06/30 05:44:15;;;;;;;12.93;6.03;;;;;;;12.76;99.30;101395.00;4993236;28;20298;-59
2021/06/30 05:46:40;;;;;;;;;;;;;;;12.74;99.10;101396.03;4990159;28;20041;-60
2021/06/30 05:49:06;;;;;;;13.33;6.27;;;;;;;12.72;99.00;101398.75;4992728;28;19920;-59
2021/06/30 05:51:32;;;;;;;14.82;6.13;;;;;;;12.69;99.23;101401.59;4989073;28;20030;-59
2021/06/30 05:53:57;;;;;;;11.77;6.53;;;;;;;12.73;99.39;101400.50;4984861;28;20033;-59
2021/06/30 05:56:23;;;;;;;10.23;5.97;;;;;;;12.79;99.29;101386.81;4998534;28;20061;-59
2021/06/30 05:58:48;;;;;;;11.38;6.07;;;;;;;12.90;99.04;101394.28;4987061;28;20033;-59
2021/06/30 06:01:13;;;;;;;16.42;7.38;;;;;;;13.07;99.18;101400.56;4989794;28;20521;-59
2021/06/30 06:03:39;;;;;;;14.38;5.82;;;;;;;12.98;97.66;101397.44;4993423;28;20144;-59
2021/06/30 06:06:04;;;;;;;10.57;5.75;;;;;;;13.02;97.37;101406.19;4990410;28;20494;-59
2021/06/30 06:08:31;;;;;;;10.55;6.13;;;;;;;13.09;98.32;101412.06;4998972;28;20057;-60
2021/06/30 06:10:57;;;;;;;11.60;5.60;;;;;;;13.12;97.95;101407.41;4988430;28;20340;-59
2021/06/30 06:13:22;;;;;;;13.18;6.00;;;;;;;13.12;97.78;101399.38;4995478;28;20304;-59
2021/06/30 06:15:48;;;;;;;10.00;5.75;;;;;;;13.17;97.80;101403.66;4991413;28;20118;-60
2021/06/30 06:18:13;;;;;;;14.32;5.90;;;;;;;13.21;97.82;101407.88;4988851;28;20022;-60
2021/06/30 06:20:38;;;;;;;12.98;6.15;;;;;;;13.29;98.93;101411.03;4991178;28;20029;-58
2021/06/30 06:23:04;;;;;;;19.15;6.72;;;;;;;13.33;99.02;101401.00;4996101;28;20029;-59
2021/06/30 06:25:29;;;;;;;11.98;6.63;;;;;;;13.34;99.30;101408.97;4988229;28;20041;-59
2021/06/30 06:27:55;;;;;;;14.45;5.72;;;;;;;13.36;98.51;101400.88;4990978;28;20424;-58
2021/06/30 06:30:20;;;;;;;8.55;5.85;;;;;;;13.32;98.04;101404.63;4999276;28;20061;-60
2021/06/30 06:32:46;;;;;;;13.27;6.57;;;;;;;13.25;97.71;101404.97;4985527;28;20446;-60
2021/06/30 06:35:11;;;;;;;13.63;7.25;;;;;;;13.18;98.37;101413.44;4988296;28;20056;-60
2021/06/30 06:37:37;;;;;;;10.52;5.40;;;;;;;13.15;98.83;101411.75;4993520;28;20096;-59
2021/06/30 06:40:05;;;;;;;13.95;6.30;;;;;;;13.13;98.82;101417.19;4986562;28;20120;-59
2021/06/30 06:42:31;;;;;;;14.83;6.20;;;;;;;13.07;98.22;101420.19;4986624;28;20095;-60
2021/06/30 06:44:57;;;;;;;9.63;5.80;;;;;;;13.04;98.02;101416.81;4983885;28;20293;-59
2021/06/30 06:47:22;;;;;;;11.18;6.03;;;;;;;13.11;98.37;101418.22;4994405;28;20280;-60
2021/06/30 06:49:47;;;;;;;13.80;6.82;;;;;;;13.23;98.63;101416.72;4988196;28;20033;-60
2021/06/30 06:52:13;;;;;;;15.38;6.72;;;;;;;13.27;97.97;101418.28;4989676;28;20721;-60
2021/06/30 06:54:38;;;;;;;8.82;6.00;;;;;;;13.29;98.64;101419.06;4987068;28;20046;-60
2021/06/30 06:57:03;;;;;;;12.23;6.07;;;;;;;13.26;98.28;101422.78;4983063;28;20058;-61
2021/06/30 06:59:29;;;;;;;12.35;6.63;;;;;;;13.19;97.70;101423.16;4990014;28;20168;-58
2021/06/30 07:01:54;;;;;;;12.65;6.80;;;;;;;13.18;98.39;101424.13;4983292;28;20601;-58
2021/06/30 07:04:20;;;;;;;13.48;6.32;;;;;;;13.18;99.01;101418.78;4971896;28;20018;-59
2021/06/30 07:06:45;;;;;;;15.95;6.85;;;;;;;13.18;98.27;101425.00;4983753;28;20033;-59
2021/06/30 07:09:10;;;;;;;11.75;6.53;;;;;;;13.23;98.59;101422.06;4991290;28;20033;-60
2021/06/30 07:11:36;;;;;;;13.93;6.18;;;;;;;13.26;98.51;101428.13;4979144;28;20560;-59
2021/06/30 07:14:02;;;;;;;11.88;6.40;;;;;;;13.23;97.70;101428.28;4995401;28;20080;-58
2021/06/30 07:16:27;;;;;;;11.90;6.28;;;;;;;13.31;98.15;101425.22;4983623;28;20021;-59
2021/06/30 07:18:52;;;;;;;10.05;6.57;;;;;;;13.39;98.29;101428.41;4986680;28;20134;-59
2021/06/30 07:21:18;;;;;;;10.07;5.47;;;;;;;13.50;98.14;101429.63;4990273;28;20585;-60
2021/06/30 07:23:43;;;;;;;10.70;6.20;;;;;;;13.40;97.31;101430.13;4988467;28;20307;-59
2021/06/30 07:26:11;;;;;;;8.32;5.20;;;;;;;13.41;96.99;101431.00;4995727;28;20461;-59
2021/06/30 07:28:37;;;;;;;11.03;5.20;;;;;;;13.45;96.76;101430.75;4984106;28;20383;-59
2021/06/30 07:31:02;;;;;;;11.00;6.45;;;;;;;13.54;97.46;101433.88;4991279;28;21031;-60
2021/06/30 07:33:28;;;;;;;9.13;5.82;;;;;;;13.67;97.69;101434.94;4980940;28;20478;-59
2021/06/30 07:35:53;;;;;;;12.38;6.25;;;;;;;13.79;96.79;101430.72;4980790;28;20584;-59
2021/06/30 07:38:18;;;;;;;9.05;5.38;;;;;;;13.85;95.60;101432.22;4993351;28;20415;-59
2021/06/30 07:40:44;;;;;;;11.48;6.03;;;;;;;14.01;96.82;101432.22;4981671;28;20032;-60
2021/06/30 07:43:09;;;;;;;7.53;5.55;;;;;;;14.22;96.82;101432.84;4996145;28;20079;-60
2021/06/30 07:45:35;;;;;;;10.40;5.50;;;;;;;14.27;95.34;101437.97;4984369;28;20585;-60
2021/06/30 07:48:00;;;;;;;7.93;4.88;;;;;;;14.37;94.29;101429.28;4986349;28;20030;-59
2021/06/30 07:50:26;;;;;;;11.68;5.90;;;;;;;14.47;94.77;101435.00;4987499;28;20030;-59
2021/06/30 07:52:52;;;;;;;8.85;4.95;;;;;;;14.44;93.52;101432.50;4988616;28;20025;-59
2021/06/30 07:55:18;;;;;;;9.35;5.32;;;;;;;14.40;96.16;101447.03;4982331;28;20084;-59
2021/06/30 07:57:44;;;;;;;10.25;5.78;;;;;;;14.35;96.40;101444.59;4983236;28;20041;-60
2021/06/30 08:00:10;;;;;;;14.93;6.38;;;;;;;14.27;96.47;101441.50;4990946;28;20455;-60
2021/06/30 08:02:36;;;;;;;11.13;6.05;;;;;;;14.24;96.69;101452.41;4983100;28;20029;-59
2021/06/30 08:05:05;;;;;;;10.30;5.93;;;;;;;14.17;96.75;101448.34;4982902;28;20600;-59
2021/06/30 08:07:30;;;;;;;9.70;5.90;;;;;;;14.11;96.73;101451.34;4989275;28;20760;-58
2021/06/30 08:09:55;;;;;;;10.13;5.97;;;;;;;14.07;97.24;101447.97;4989256;28;20359;-58
2021/06/30 08:12:21;;;;;;;9.35;5.90;;;;;;;14.00;96.99;101454.63;4990378;28;20495;-60
2021/06/30 08:14:46;;;;;;;16.92;5.97;;;;;;;13.92;97.14;101453.25;4977178;28;20609;-59
2021/06/30 08:17:12;;;;;;;13.60;6.53;;;;;;;13.91;97.23;101447.97;4987946;28;20026;-60
2021/06/30 08:19:37;;;;;;;13.88;6.47;;;;;;;13.91;97.65;101456.00;4985674;28;20049;-60
2021/06/30 08:22:03;;;;;;;13.73;6.63;;;;;;;13.87;98.00;101454.47;4982071;28;20523;-60
2021/06/30 08:24:29;;;;;;;9.07;6.25;;;;;;;13.85;98.73;101456.34;4980365;28;20432;-59
2021/06/30 08:26:55;;;;;;;8.38;6.25;;;;;;;13.88;99.26;101457.06;4986037;28;20670;-60
2021/06/30 08:29:23;;;;;;;18.30;6.27;;;;;;;13.94;98.55;101455.88;4987064;28;20080;-58
2021/06/30 08:31:48;;;;;;;13.03;5.40;;;;;;;13.96;98.52;101453.09;4976948;28;20291;-59
2021/06/30 08:34:13;;;;;;;10.38;6.53;;;;;;;13.95;98.62;101459.41;4992192;28;20293;-58
2021/06/30 08:36:39;;;;;;;9.57;5.88;;;;;;;14.00;98.85;101465.38;4982205;28;20868;-58
2021/06/30 08:39:08;;;;;;;15.23;5.63;;;;;;;14.03;98.36;101466.06;4995035;28;20611;-58
2021/06/30 08:41:33;;;;;;;9.67;5.87;;;;;;;14.10;97.84;101463.91;4984320;28;20485;-58
2021/06/30 08:43:58;;;;;;;8.88;4.88;;;;;;;14.08;96.76;101464.00;4991301;28;20284;-58
2021/06/30 08:46:25;;;;;;;7.65;5.15;;;;;;;14.09;97.40;101460.38;4988856;28;20322;-58
2021/06/30 08:48:50;;;;;;;8.93;5.30;;;;;;;14.14;97.31;101464.59;4991016;28;20527;-58
2021/06/30 08:51:23;;;;;;;7.22;4.90;;;;;;;14.36;98.00;101467.81;4992915;28;20310;-58
2021/06/30 08:53:50;;;;;;;7.03;4.23;;;;;;;14.56;95.10;101468.50;4991234;28;20041;-60
2021/06/30 08:56:19;;;;;;;6.60;4.10;;;;;;;14.76;95.78;101462.00;4989793;28;20304;-59
2021/06/30 08:58:48;;;;;;;5.97;3.97;;;;;;;14.55;93.40;101461.41;4990013;28;20312;-59
2021/06/30 09:01:14;;;;;;;7.43;4.17;;;;;;;14.46;95.26;101468.16;4989512;28;20284;-59
2021/06/30 09:03:48;;;;;;;9.60;4.43;;;;;;;14.36;96.91;101470.50;4994131;28;20845;-59
2021/06/30 09:06:14;;;;;;;8.27;4.90;;;;;;;14.35;97.94;101466.09;4991849;28;20057;-60
2021/06/30 09:08:42;;;;;;;7.47;4.45;;;;;;;14.48;97.48;101471.63;4995426;28;20647;-60
2021/06/30 09:11:15;;;;;;;4.70;3.20;;;;;;;14.68;97.15;101465.16;4983826;28;20670;-59
2021/06/30 09:13:41;;;;;;;5.60;3.83;;;;;;;14.90;97.40;101473.78;4997522;28;20277;-59
2021/06/30 09:16:07;;;;;;;7.63;3.47;;;;;;;14.96;94.92;101473.41;4987538;28;20290;-59
2021/06/30 09:18:34;;;;;;;6.38;2.72;;;;;;;14.95;94.21;101475.22;4994534;28;20022;-59
2021/06/30 09:21:18;;;;;;;7.10;3.70;;;;;;;15.03;94.36;101472.09;4990805;28;20364;-59
2021/06/30 09:24:00;;;;;;;4.40;2.83;;;;;;;15.06;92.45;101471.91;4992043;28;20881;-59
2021/06/30 09:26:28;;;;;;;6.43;3.00;;;;;;;15.21;94.25;101470.13;4987309;28;20307;-60
2021/06/30 09:29:10;;;;;;;5.03;3.10;;;;;;;15.50;94.21;101465.69;4989523;28;20285;-60
2021/06/30 09:31:38;;;;;;;5.00;2.70;;;;;;;15.57;92.34;101463.44;4992132;28;20297;-59
2021/06/30 09:34:04;;;;;;;3.90;2.50;;;;;;;15.62;93.35;101469.44;4990547;28;20324;-60
2021/06/30 09:36:59;;;;;;;3.35;2.70;;;;;;;15.62;92.21;101472.13;4989520;28;20782;-59
2021/06/30 09:39:25;;;;;;;4.17;2.40;;;;;;;15.74;91.74;101472.31;4985733;28;20033;-59
2021/06/30 09:42:02;;;;;;;6.43;3.45;;;;;;;15.81;92.28;101474.53;4996100;28;20292;-60
2021/06/30 09:44:27;;;;;;;6.60;2.77;;;;;;;15.74;90.19;101483.94;4990023;28;20062;-59
2021/06/30 09:46:55;;;;;;;6.25;3.00;;;;;;;15.78;91.70;101479.25;4994110;28;20392;-59
2021/06/30 09:49:21;;;;;;;4.93;2.70;;;;;;;15.90;89.68;101474.94;4990410;28;20034;-59
2021/06/30 09:51:48;;;;;;;5.25;2.70;;;;;;;16.09;90.65;101477.34;4985994;28;20291;-59
2021/06/30 09:54:15;;;;;;;5.20;2.70;;;;;;;16.12;88.65;101472.63;4995831;28;20408;-60
2021/06/30 09:56:57;;;;;;;4.50;2.77;;;;;;;16.04;88.85;101479.44;4988385;28;20280;-59
2021/06/30 09:59:26;;;;;;;5.10;2.63;;;;;;;15.86;89.53;101471.59;4993244;28;20857;-58
2021/06/30 10:01:56;;;;;;;5.57;2.30;;;;;;;15.69;89.70;101474.44;4983042;28;20292;-58
2021/06/30 10:04:23;;;;;;;5.73;2.70;;;;;;;15.50;91.12;101475.53;4994603;28;20300;-59
2021/06/30 10:06:49;;;;;;;5.70;2.40;;;;;;;15.44;92.72;101478.63;4981049;28;20918;-58
2021/06/30 10:09:14;;;;;;;2.13;1.90;;;;;;;15.40;93.10;101485.16;5005086;28;20287;-58
2021/06/30 10:11:40;;;;;;;3.33;1.70;;;;;;;15.37;92.94;101483.50;4985032;28;20409;-59
2021/06/30 10:14:05;;;;;;;3.13;1.92;;;;;;;15.37;94.78;101485.31;4986174;28;20474;-59
2021/06/30 10:16:31;;;;;;;2.20;1.90;;;;;;;15.42;94.11;101481.41;4990395;28;20475;-60
2021/06/30 10:18:59;;;;;;;1.73;1.42;;;;;;;15.41;93.13;101481.47;4987124;28;20053;-59
2021/06/30 10:21:33;;;;;;;2.87;1.43;;;;;;;15.37;93.07;101475.44;4997112;28;20376;-59
2021/06/30 10:23:59;;;;;;;3.03;1.90;;;;;;;15.31;94.51;101479.38;4987252;28;20284;-59
2021/06/30 10:26:25;;;;;;;2.13;1.75;;;;;;;15.40;94.42;101486.00;4994268;28;20311;-60
2021/06/30 10:28:53;;;;;;;2.47;1.73;;;;;;;15.49;93.83;101479.19;4989541;28;20025;-59
2021/06/30 10:31:20;;;;;;;2.80;1.60;;;;;;;15.79;93.34;101483.63;4991201;28;20536;-60
2021/06/30 10:34:06;;;;;;;2.33;1.50;;;;;;;16.10;91.72;101479.03;4988123;28;20302;-59
2021/06/30 10:36:51;;;;;;;2.20;1.40;;;;;;;16.09;92.21;101480.03;4987674;28;20766;-59
2021/06/30 10:39:36;;;;;;;1.93;1.20;;;;;;;16.05;91.87;101486.56;4987376;28;20292;-59
2021/06/30 10:42:19;;;;;;;1.30;1.20;;;;;;;16.07;90.71;101490.03;4989182;28;20327;-59
2021/06/30 10:44:55;;;;;;;5.27;1.63;;;;;;;16.26;91.53;101490.56;4990689;28;20281;-58
2021/06/30 10:47:38;;;;;;;3.88;1.75;;;;;;;16.76;90.70;101477.44;4987177;28;20884;-59
2021/06/30 10:50:24;;;;;;;2.30;2.10;;;;;;;17.39;89.43;101484.97;4993527;28;20036;-59
2021/06/30 10:52:54;;;;;;;5.90;2.70;;;;;;;17.71;84.85;101481.81;4987877;28;20292;-58
2021/06/30 10:55:36;;;;;;;5.80;2.90;;;;;;;17.71;85.99;101489.91;4943497;28;20701;-60
2021/06/30 10:58:10;;;;;;;6.23;3.30;;;;;;;17.64;85.01;101489.50;4980922;28;20346;-59
2021/06/30 11:00:55;;;;;;;8.13;3.17;;;;;;;17.54;84.64;101488.41;4983530;28;20287;-58
2021/06/30 11:03:42;;;;;;;6.63;2.70;;;;;;;17.18;84.76;101488.16;4988258;28;20307;-60
2021/06/30 11:06:13;;;;;;;3.73;2.50;;;;;;;17.02;86.31;101492.84;4991229;28;20572;-60
2021/06/30 11:08:48;;;;;;;6.67;2.63;;;;;;;17.01;87.62;101496.53;4987033;28;21225;-59
2021/06/30 11:11:44;;;;;;;5.03;2.80;;;;;;;17.18;85.91;101492.69;4992509;28;20388;-60
2021/06/30 11:14:11;;;;;;;3.53;2.67;;;;;;;17.59;86.37;101491.66;4981790;28;20594;-59
2021/06/30 11:16:40;;;;;;;3.77;2.80;;;;;;;18.22;82.68;101496.28;4983487;28;20434;-60